sensor_id;sensor_type;location;lat;lon;timestamp;temperature;humidity
66835;HTU21D;53743;51.100;5.874;2023-03-23T00:00:54;14.12;83.58
66835;HTU21D;53743;51.100;5.874;2023-03-23T00:01:56;14.10;83.89
66835;HTU21D;53743;51.100;5.874;2023-03-23T00:02:57;14.10;83.88
66835;HTU21D;53743;51.100;5.874;2023-03-23T00:03:59;14.12;83.87
66835;HTU21D;53743;51.100;5.874;2023-03-23T00:04:59;14.13;83.73
66835;HTU21D;53743;51.100;5.874;2023-03-23T00:06:03;14.07;84.16
66835;HTU21D;53743;51.100;5.874;2023-03-23T00:07:05;14.05;84.19
66835;HTU21D;53743;51.100;5.874;2023-03-23T00:08:08;14.08;83.87
66835;HTU21D;53743;51.100;5.874;2023-03-23T00:09:10;14.05;84.33
66835;HTU21D;53743;51.100;5.874;2023-03-23T00:10:12;14.07;83.92
66835;HTU21D;53743;51.100;5.874;2023-03-23T00:11:13;14.08;83.50
66835;HTU21D;53743;51.100;5.874;2023-03-23T00:12:15;14.09;83.47
66835;HTU21D;53743;51.100;5.874;2023-03-23T00:13:16;14.09;83.63
66835;HTU21D;53743;51.100;5.874;2023-03-23T00:14:22;14.08;84.13
66835;HTU21D;53743;51.100;5.874;2023-03-23T00:15:23;14.05;84.26
66835;HTU21D;53743;51.100;5.874;2023-03-23T00:16:25;14.05;84.23
66835;HTU21D;53743;51.100;5.874;2023-03-23T00:17:32;14.06;83.90
66835;HTU21D;53743;51.100;5.874;2023-03-23T00:18:34;14.05;84.02
66835;HTU21D;53743;51.100;5.874;2023-03-23T00:19:36;14.06;84.26
66835;HTU21D;53743;51.100;5.874;2023-03-23T00:20:54;14.00;84.50
66835;HTU21D;53743;51.100;5.874;2023-03-23T00:21:56;14.04;83.99
66835;HTU21D;53743;51.100;5.874;2023-03-23T00:22:57;14.01;84.01
66835;HTU21D;53743;51.100;5.874;2023-03-23T00:24:02;14.03;84.42
66835;HTU21D;53743;51.100;5.874;2023-03-23T00:25:04;14.00;84.69
66835;HTU21D;53743;51.100;5.874;2023-03-23T00:26:06;14.01;84.51
66835;HTU21D;53743;51.100;5.874;2023-03-23T00:27:08;14.03;84.32
66835;HTU21D;53743;51.100;5.874;2023-03-23T00:28:13;14.03;84.58
66835;HTU21D;53743;51.100;5.874;2023-03-23T00:29:17;14.04;83.96
66835;HTU21D;53743;51.100;5.874;2023-03-23T00:30:25;14.06;84.12
66835;HTU21D;53743;51.100;5.874;2023-03-23T00:31:27;14.05;84.47
66835;HTU21D;53743;51.100;5.874;2023-03-23T00:32:31;14.03;84.55
66835;HTU21D;53743;51.100;5.874;2023-03-23T00:33:39;14.05;84.58
66835;HTU21D;53743;51.100;5.874;2023-03-23T00:34:42;14.07;84.42
66835;HTU21D;53743;51.100;5.874;2023-03-23T00:35:44;14.06;84.53
66835;HTU21D;53743;51.100;5.874;2023-03-23T00:36:49;14.05;84.68
66835;HTU21D;53743;51.100;5.874;2023-03-23T00:37:50;14.08;84.24
66835;HTU21D;53743;51.100;5.874;2023-03-23T00:38:54;14.05;84.72
66835;HTU21D;53743;51.100;5.874;2023-03-23T00:39:58;14.07;84.56
66835;HTU21D;53743;51.100;5.874;2023-03-23T00:41:02;14.06;84.71
66835;HTU21D;53743;51.100;5.874;2023-03-23T00:42:04;14.05;84.82
66835;HTU21D;53743;51.100;5.874;2023-03-23T00:43:06;14.06;84.76
66835;HTU21D;53743;51.100;5.874;2023-03-23T00:44:09;14.07;84.26
66835;HTU21D;53743;51.100;5.874;2023-03-23T00:45:11;14.08;84.64
66835;HTU21D;53743;51.100;5.874;2023-03-23T00:46:13;14.11;84.11
66835;HTU21D;53743;51.100;5.874;2023-03-23T00:47:15;14.10;84.13
66835;HTU21D;53743;51.100;5.874;2023-03-23T00:48:18;14.07;84.84
66835;HTU21D;53743;51.100;5.874;2023-03-23T00:49:20;14.09;84.70
66835;HTU21D;53743;51.100;5.874;2023-03-23T00:50:25;14.08;84.61
66835;HTU21D;53743;51.100;5.874;2023-03-23T00:51:27;14.06;84.84
66835;HTU21D;53743;51.100;5.874;2023-03-23T00:52:28;14.03;85.32
66835;HTU21D;53743;51.100;5.874;2023-03-23T00:53:30;14.01;85.38
66835;HTU21D;53743;51.100;5.874;2023-03-23T00:54:30;14.00;85.16
66835;HTU21D;53743;51.100;5.874;2023-03-23T00:55:32;13.96;85.21
66835;HTU21D;53743;51.100;5.874;2023-03-23T00:56:35;14.03;85.07
66835;HTU21D;53743;51.100;5.874;2023-03-23T00:57:37;14.06;84.51
66835;HTU21D;53743;51.100;5.874;2023-03-23T00:58:37;14.08;84.63
66835;HTU21D;53743;51.100;5.874;2023-03-23T00:59:40;14.06;85.00
66835;HTU21D;53743;51.100;5.874;2023-03-23T01:00:42;14.06;85.09
66835;HTU21D;53743;51.100;5.874;2023-03-23T01:01:45;14.08;84.40
66835;HTU21D;53743;51.100;5.874;2023-03-23T01:02:49;14.09;84.88
66835;HTU21D;53743;51.100;5.874;2023-03-23T01:03:51;14.08;85.22
66835;HTU21D;53743;51.100;5.874;2023-03-23T01:05:01;14.07;84.63
66835;HTU21D;53743;51.100;5.874;2023-03-23T01:06:06;14.07;85.38
66835;HTU21D;53743;51.100;5.874;2023-03-23T01:07:08;14.08;84.84
66835;HTU21D;53743;51.100;5.874;2023-03-23T01:08:14;14.04;85.64
66835;HTU21D;53743;51.100;5.874;2023-03-23T01:09:17;14.05;85.03
66835;HTU21D;53743;51.100;5.874;2023-03-23T01:10:22;14.04;85.29
66835;HTU21D;53743;51.100;5.874;2023-03-23T01:11:26;14.05;85.08
66835;HTU21D;53743;51.100;5.874;2023-03-23T01:12:27;14.07;85.26
66835;HTU21D;53743;51.100;5.874;2023-03-23T01:13:30;14.05;84.98
66835;HTU21D;53743;51.100;5.874;2023-03-23T01:14:31;14.05;85.30
66835;HTU21D;53743;51.100;5.874;2023-03-23T01:15:34;14.06;85.00
66835;HTU21D;53743;51.100;5.874;2023-03-23T01:16:36;14.08;85.51
66835;HTU21D;53743;51.100;5.874;2023-03-23T01:17:39;14.05;85.37
66835;HTU21D;53743;51.100;5.874;2023-03-23T01:18:40;14.06;85.51
66835;HTU21D;53743;51.100;5.874;2023-03-23T01:19:42;14.05;85.03
66835;HTU21D;53743;51.100;5.874;2023-03-23T01:20:43;14.07;84.90
66835;HTU21D;53743;51.100;5.874;2023-03-23T01:21:45;14.07;85.57
66835;HTU21D;53743;51.100;5.874;2023-03-23T01:22:45;14.06;85.38
66835;HTU21D;53743;51.100;5.874;2023-03-23T01:23:48;14.06;85.47
66835;HTU21D;53743;51.100;5.874;2023-03-23T01:24:49;14.06;85.37
66835;HTU21D;53743;51.100;5.874;2023-03-23T01:25:50;14.05;86.00
66835;HTU21D;53743;51.100;5.874;2023-03-23T01:26:54;14.07;85.40
66835;HTU21D;53743;51.100;5.874;2023-03-23T01:27:57;14.05;86.18
66835;HTU21D;53743;51.100;5.874;2023-03-23T01:28:59;14.07;85.50
66835;HTU21D;53743;51.100;5.874;2023-03-23T01:30:01;14.03;85.93
66835;HTU21D;53743;51.100;5.874;2023-03-23T01:31:06;14.05;85.70
66835;HTU21D;53743;51.100;5.874;2023-03-23T01:32:09;14.06;85.69
66835;HTU21D;53743;51.100;5.874;2023-03-23T01:33:11;14.05;85.93
66835;HTU21D;53743;51.100;5.874;2023-03-23T01:34:13;14.06;86.32
66835;HTU21D;53743;51.100;5.874;2023-03-23T01:35:15;14.03;85.91
66835;HTU21D;53743;51.100;5.874;2023-03-23T01:36:19;14.04;85.80
66835;HTU21D;53743;51.100;5.874;2023-03-23T01:37:21;14.05;85.55
66835;HTU21D;53743;51.100;5.874;2023-03-23T01:38:26;14.04;85.92
66835;HTU21D;53743;51.100;5.874;2023-03-23T01:39:27;14.03;85.96
66835;HTU21D;53743;51.100;5.874;2023-03-23T01:40:29;14.04;86.19
66835;HTU21D;53743;51.100;5.874;2023-03-23T01:41:31;14.01;86.09
66835;HTU21D;53743;51.100;5.874;2023-03-23T01:42:39;13.96;87.15
66835;HTU21D;53743;51.100;5.874;2023-03-23T01:44:01;13.95;86.79
66835;HTU21D;53743;51.100;5.874;2023-03-23T01:45:30;13.94;86.94
66835;HTU21D;53743;51.100;5.874;2023-03-23T01:46:33;13.95;86.80
66835;HTU21D;53743;51.100;5.874;2023-03-23T01:47:35;13.97;86.70
66835;HTU21D;53743;51.100;5.874;2023-03-23T01:48:39;13.97;86.09
66835;HTU21D;53743;51.100;5.874;2023-03-23T01:49:44;13.93;87.04
66835;HTU21D;53743;51.100;5.874;2023-03-23T01:50:52;13.95;86.45
66835;HTU21D;53743;51.100;5.874;2023-03-23T01:51:59;13.97;86.71
66835;HTU21D;53743;51.100;5.874;2023-03-23T01:53:05;13.95;86.83
66835;HTU21D;53743;51.100;5.874;2023-03-23T01:54:12;13.98;86.20
66835;HTU21D;53743;51.100;5.874;2023-03-23T01:55:14;13.98;86.58
66835;HTU21D;53743;51.100;5.874;2023-03-23T01:56:20;13.98;86.26
66835;HTU21D;53743;51.100;5.874;2023-03-23T01:57:26;13.97;87.10
66835;HTU21D;53743;51.100;5.874;2023-03-23T01:58:32;13.97;86.93
66835;HTU21D;53743;51.100;5.874;2023-03-23T01:59:36;13.97;86.83
66835;HTU21D;53743;51.100;5.874;2023-03-23T02:00:53;13.96;86.62
66835;HTU21D;53743;51.100;5.874;2023-03-23T02:01:56;13.96;86.48
66835;HTU21D;53743;51.100;5.874;2023-03-23T02:03:00;13.97;86.46
66835;HTU21D;53743;51.100;5.874;2023-03-23T02:04:07;13.94;87.28
66835;HTU21D;53743;51.100;5.874;2023-03-23T02:05:14;13.90;87.02
66835;HTU21D;53743;51.100;5.874;2023-03-23T02:06:18;13.92;86.90
66835;HTU21D;53743;51.100;5.874;2023-03-23T02:07:38;13.90;87.11
66835;HTU21D;53743;51.100;5.874;2023-03-23T02:08:43;13.89;87.24
66835;HTU21D;53743;51.100;5.874;2023-03-23T02:09:44;13.88;86.67
66835;HTU21D;53743;51.100;5.874;2023-03-23T02:10:46;13.85;87.79
66835;HTU21D;53743;51.100;5.874;2023-03-23T02:11:49;13.86;86.98
66835;HTU21D;53743;51.100;5.874;2023-03-23T02:12:52;13.86;86.85
66835;HTU21D;53743;51.100;5.874;2023-03-23T02:15:10;13.86;87.96
66835;HTU21D;53743;51.100;5.874;2023-03-23T02:16:24;13.86;87.19
66835;HTU21D;53743;51.100;5.874;2023-03-23T02:17:40;13.86;86.80
66835;HTU21D;53743;51.100;5.874;2023-03-23T02:18:57;13.88;87.24
66835;HTU21D;53743;51.100;5.874;2023-03-23T02:20:10;13.81;87.82
66835;HTU21D;53743;51.100;5.874;2023-03-23T02:24:58;13.80;87.64
66835;HTU21D;53743;51.100;5.874;2023-03-23T02:26:19;13.81;87.64
66835;HTU21D;53743;51.100;5.874;2023-03-23T02:29:17;13.83;87.69
66835;HTU21D;53743;51.100;5.874;2023-03-23T02:30:50;13.86;87.54
66835;HTU21D;53743;51.100;5.874;2023-03-23T02:32:08;13.85;87.56
66835;HTU21D;53743;51.100;5.874;2023-03-23T02:33:33;13.82;87.80
66835;HTU21D;53743;51.100;5.874;2023-03-23T02:34:41;13.82;88.04
66835;HTU21D;53743;51.100;5.874;2023-03-23T02:35:47;13.86;87.61
66835;HTU21D;53743;51.100;5.874;2023-03-23T02:36:58;13.84;87.57
66835;HTU21D;53743;51.100;5.874;2023-03-23T02:38:05;13.84;88.00
66835;HTU21D;53743;51.100;5.874;2023-03-23T02:39:12;13.84;87.67
66835;HTU21D;53743;51.100;5.874;2023-03-23T02:40:18;13.88;87.28
66835;HTU21D;53743;51.100;5.874;2023-03-23T02:41:28;13.89;87.99
66835;HTU21D;53743;51.100;5.874;2023-03-23T02:42:33;13.81;88.38
66835;HTU21D;53743;51.100;5.874;2023-03-23T02:43:42;13.79;87.85
66835;HTU21D;53743;51.100;5.874;2023-03-23T02:44:47;13.82;87.49
66835;HTU21D;53743;51.100;5.874;2023-03-23T02:45:53;13.79;87.97
66835;HTU21D;53743;51.100;5.874;2023-03-23T02:46:56;13.80;87.83
66835;HTU21D;53743;51.100;5.874;2023-03-23T02:48:02;13.81;87.75
66835;HTU21D;53743;51.100;5.874;2023-03-23T02:49:09;13.82;87.91
66835;HTU21D;53743;51.100;5.874;2023-03-23T02:50:15;13.80;88.18
66835;HTU21D;53743;51.100;5.874;2023-03-23T02:51:20;13.76;88.60
66835;HTU21D;53743;51.100;5.874;2023-03-23T02:52:26;13.76;88.01
66835;HTU21D;53743;51.100;5.874;2023-03-23T02:53:30;13.76;88.75
66835;HTU21D;53743;51.100;5.874;2023-03-23T02:54:36;13.74;88.40
66835;HTU21D;53743;51.100;5.874;2023-03-23T02:55:42;13.76;87.96
66835;HTU21D;53743;51.100;5.874;2023-03-23T02:56:49;13.74;88.63
66835;HTU21D;53743;51.100;5.874;2023-03-23T02:57:57;13.76;88.17
66835;HTU21D;53743;51.100;5.874;2023-03-23T02:58:59;13.74;88.83
66835;HTU21D;53743;51.100;5.874;2023-03-23T03:00:04;13.73;88.94
66835;HTU21D;53743;51.100;5.874;2023-03-23T03:02:35;13.77;88.73
66835;HTU21D;53743;51.100;5.874;2023-03-23T03:03:37;13.76;88.19
66835;HTU21D;53743;51.100;5.874;2023-03-23T03:04:46;13.74;88.44
66835;HTU21D;53743;51.100;5.874;2023-03-23T03:06:00;13.75;88.16
66835;HTU21D;53743;51.100;5.874;2023-03-23T03:07:21;13.69;89.32
66835;HTU21D;53743;51.100;5.874;2023-03-23T03:08:31;13.71;88.33
66835;HTU21D;53743;51.100;5.874;2023-03-23T03:09:44;13.73;88.46
66835;HTU21D;53743;51.100;5.874;2023-03-23T03:10:57;13.74;88.25
66835;HTU21D;53743;51.100;5.874;2023-03-23T03:12:09;13.73;88.64
66835;HTU21D;53743;51.100;5.874;2023-03-23T03:13:18;13.74;88.91
66835;HTU21D;53743;51.100;5.874;2023-03-23T03:14:28;13.73;88.38
66835;HTU21D;53743;51.100;5.874;2023-03-23T03:15:35;13.76;88.39
66835;HTU21D;53743;51.100;5.874;2023-03-23T03:16:43;13.78;88.62
66835;HTU21D;53743;51.100;5.874;2023-03-23T03:17:53;13.77;88.31
66835;HTU21D;53743;51.100;5.874;2023-03-23T03:19:03;13.76;88.53
66835;HTU21D;53743;51.100;5.874;2023-03-23T03:20:10;13.76;88.56
66835;HTU21D;53743;51.100;5.874;2023-03-23T03:21:18;13.77;87.94
66835;HTU21D;53743;51.100;5.874;2023-03-23T03:22:28;13.79;88.15
66835;HTU21D;53743;51.100;5.874;2023-03-23T03:23:33;13.70;88.84
66835;HTU21D;53743;51.100;5.874;2023-03-23T03:24:38;13.67;88.64
66835;HTU21D;53743;51.100;5.874;2023-03-23T03:25:43;13.73;88.62
66835;HTU21D;53743;51.100;5.874;2023-03-23T03:26:51;13.76;87.95
66835;HTU21D;53743;51.100;5.874;2023-03-23T03:28:02;13.74;88.64
66835;HTU21D;53743;51.100;5.874;2023-03-23T03:29:19;13.74;88.38
66835;HTU21D;53743;51.100;5.874;2023-03-23T03:30:28;13.75;88.04
66835;HTU21D;53743;51.100;5.874;2023-03-23T03:31:36;13.74;88.21
66835;HTU21D;53743;51.100;5.874;2023-03-23T03:32:44;13.76;87.81
66835;HTU21D;53743;51.100;5.874;2023-03-23T03:33:49;13.78;87.96
66835;HTU21D;53743;51.100;5.874;2023-03-23T03:34:52;13.78;88.26
66835;HTU21D;53743;51.100;5.874;2023-03-23T03:35:57;13.77;87.97
66835;HTU21D;53743;51.100;5.874;2023-03-23T03:37:01;13.77;88.16
66835;HTU21D;53743;51.100;5.874;2023-03-23T03:38:07;13.78;87.93
66835;HTU21D;53743;51.100;5.874;2023-03-23T03:39:10;13.78;88.02
66835;HTU21D;53743;51.100;5.874;2023-03-23T03:40:15;13.77;88.25
66835;HTU21D;53743;51.100;5.874;2023-03-23T03:41:19;13.76;88.05
66835;HTU21D;53743;51.100;5.874;2023-03-23T03:42:21;13.70;88.46
66835;HTU21D;53743;51.100;5.874;2023-03-23T03:43:25;13.70;88.15
66835;HTU21D;53743;51.100;5.874;2023-03-23T03:44:27;13.68;88.48
66835;HTU21D;53743;51.100;5.874;2023-03-23T03:45:30;13.67;88.33
66835;HTU21D;53743;51.100;5.874;2023-03-23T03:46:31;13.71;88.08
66835;HTU21D;53743;51.100;5.874;2023-03-23T03:47:33;13.68;88.78
66835;HTU21D;53743;51.100;5.874;2023-03-23T03:48:34;13.68;88.80
66835;HTU21D;53743;51.100;5.874;2023-03-23T03:49:36;13.67;89.17
66835;HTU21D;53743;51.100;5.874;2023-03-23T03:50:38;13.65;88.92
66835;HTU21D;53743;51.100;5.874;2023-03-23T03:51:41;13.67;88.87
66835;HTU21D;53743;51.100;5.874;2023-03-23T03:52:48;13.66;88.62
66835;HTU21D;53743;51.100;5.874;2023-03-23T03:53:50;13.67;88.22
66835;HTU21D;53743;51.100;5.874;2023-03-23T03:54:51;13.69;88.64
66835;HTU21D;53743;51.100;5.874;2023-03-23T03:55:52;13.74;88.50
66835;HTU21D;53743;51.100;5.874;2023-03-23T03:56:55;13.74;88.09
66835;HTU21D;53743;51.100;5.874;2023-03-23T03:58:17;13.73;88.27
66835;HTU21D;53743;51.100;5.874;2023-03-23T03:59:38;13.74;88.01
66835;HTU21D;53743;51.100;5.874;2023-03-23T04:01:13;13.74;88.30
66835;HTU21D;53743;51.100;5.874;2023-03-23T04:02:15;13.70;88.67
66835;HTU21D;53743;51.100;5.874;2023-03-23T04:03:20;13.68;88.92
66835;HTU21D;53743;51.100;5.874;2023-03-23T04:04:35;13.73;87.86
66835;HTU21D;53743;51.100;5.874;2023-03-23T04:05:37;13.76;88.27
66835;HTU21D;53743;51.100;5.874;2023-03-23T04:06:38;13.75;87.90
66835;HTU21D;53743;51.100;5.874;2023-03-23T04:07:41;13.70;88.15
66835;HTU21D;53743;51.100;5.874;2023-03-23T04:08:43;13.69;88.36
66835;HTU21D;53743;51.100;5.874;2023-03-23T04:09:46;13.67;88.49
66835;HTU21D;53743;51.100;5.874;2023-03-23T04:10:50;13.68;88.09
66835;HTU21D;53743;51.100;5.874;2023-03-23T04:11:52;13.68;88.17
66835;HTU21D;53743;51.100;5.874;2023-03-23T04:13:19;13.68;88.47
66835;HTU21D;53743;51.100;5.874;2023-03-23T04:14:40;13.67;87.92
66835;HTU21D;53743;51.100;5.874;2023-03-23T04:15:41;13.69;88.09
66835;HTU21D;53743;51.100;5.874;2023-03-23T04:16:43;13.67;88.10
66835;HTU21D;53743;51.100;5.874;2023-03-23T04:17:44;13.67;88.38
66835;HTU21D;53743;51.100;5.874;2023-03-23T04:18:46;13.66;88.01
66835;HTU21D;53743;51.100;5.874;2023-03-23T04:19:48;13.66;88.40
66835;HTU21D;53743;51.100;5.874;2023-03-23T04:20:50;13.69;88.02
66835;HTU21D;53743;51.100;5.874;2023-03-23T04:21:53;13.67;87.76
66835;HTU21D;53743;51.100;5.874;2023-03-23T04:22:58;13.63;88.28
66835;HTU21D;53743;51.100;5.874;2023-03-23T04:24:03;13.65;88.10
66835;HTU21D;53743;51.100;5.874;2023-03-23T04:25:05;13.65;88.06
66835;HTU21D;53743;51.100;5.874;2023-03-23T04:26:10;13.64;87.66
66835;HTU21D;53743;51.100;5.874;2023-03-23T04:27:16;13.65;87.54
66835;HTU21D;53743;51.100;5.874;2023-03-23T04:28:17;13.65;87.67
66835;HTU21D;53743;51.100;5.874;2023-03-23T04:29:42;13.65;87.52
66835;HTU21D;53743;51.100;5.874;2023-03-23T04:31:10;13.66;87.72
66835;HTU21D;53743;51.100;5.874;2023-03-23T04:32:16;13.66;87.67
66835;HTU21D;53743;51.100;5.874;2023-03-23T04:33:24;13.67;87.64
66835;HTU21D;53743;51.100;5.874;2023-03-23T04:34:27;13.68;87.29
66835;HTU21D;53743;51.100;5.874;2023-03-23T04:35:30;13.69;87.09
66835;HTU21D;53743;51.100;5.874;2023-03-23T04:36:42;13.65;86.99
66835;HTU21D;53743;51.100;5.874;2023-03-23T04:37:50;13.64;87.15
66835;HTU21D;53743;51.100;5.874;2023-03-23T04:38:55;13.64;87.32
66835;HTU21D;53743;51.100;5.874;2023-03-23T04:39:58;13.65;87.24
66835;HTU21D;53743;51.100;5.874;2023-03-23T04:41:02;13.67;86.80
66835;HTU21D;53743;51.100;5.874;2023-03-23T04:42:15;13.67;87.01
66835;HTU21D;53743;51.100;5.874;2023-03-23T04:43:36;13.64;86.96
66835;HTU21D;53743;51.100;5.874;2023-03-23T04:44:55;13.65;86.55
66835;HTU21D;53743;51.100;5.874;2023-03-23T04:46:03;13.68;86.32
66835;HTU21D;53743;51.100;5.874;2023-03-23T04:47:09;13.73;86.28
66835;HTU21D;53743;51.100;5.874;2023-03-23T04:48:18;13.73;85.84
66835;HTU21D;53743;51.100;5.874;2023-03-23T04:49:32;13.74;86.14
66835;HTU21D;53743;51.100;5.874;2023-03-23T04:50:45;13.69;86.09
66835;HTU21D;53743;51.100;5.874;2023-03-23T04:51:56;13.68;85.91
66835;HTU21D;53743;51.100;5.874;2023-03-23T04:53:13;13.68;86.06
66835;HTU21D;53743;51.100;5.874;2023-03-23T04:54:19;13.71;85.67
66835;HTU21D;53743;51.100;5.874;2023-03-23T04:55:25;13.66;86.03
66835;HTU21D;53743;51.100;5.874;2023-03-23T04:56:31;13.65;86.02
66835;HTU21D;53743;51.100;5.874;2023-03-23T04:57:38;13.64;85.90
66835;HTU21D;53743;51.100;5.874;2023-03-23T04:59:03;13.63;85.87
66835;HTU21D;53743;51.100;5.874;2023-03-23T05:00:16;13.65;86.24
66835;HTU21D;53743;51.100;5.874;2023-03-23T05:01:22;13.61;86.07
66835;HTU21D;53743;51.100;5.874;2023-03-23T05:02:46;13.53;86.46
66835;HTU21D;53743;51.100;5.874;2023-03-23T05:03:47;13.54;86.39
66835;HTU21D;53743;51.100;5.874;2023-03-23T05:04:49;13.62;85.47
66835;HTU21D;53743;51.100;5.874;2023-03-23T05:06:01;13.64;85.60
66835;HTU21D;53743;51.100;5.874;2023-03-23T05:07:03;13.60;85.53
66835;HTU21D;53743;51.100;5.874;2023-03-23T05:08:06;13.56;85.34
66835;HTU21D;53743;51.100;5.874;2023-03-23T05:09:11;13.56;85.66
66835;HTU21D;53743;51.100;5.874;2023-03-23T05:10:15;13.60;85.33
66835;HTU21D;53743;51.100;5.874;2023-03-23T05:11:18;13.59;85.32
66835;HTU21D;53743;51.100;5.874;2023-03-23T05:12:19;13.62;85.58
66835;HTU21D;53743;51.100;5.874;2023-03-23T05:13:40;13.61;85.21
66835;HTU21D;53743;51.100;5.874;2023-03-23T05:14:42;13.59;85.10
66835;HTU21D;53743;51.100;5.874;2023-03-23T05:15:48;13.60;85.42
66835;HTU21D;53743;51.100;5.874;2023-03-23T05:16:49;13.62;85.15
66835;HTU21D;53743;51.100;5.874;2023-03-23T05:17:53;13.59;85.31
66835;HTU21D;53743;51.100;5.874;2023-03-23T05:18:55;13.65;84.54
66835;HTU21D;53743;51.100;5.874;2023-03-23T05:20:02;13.64;85.00
66835;HTU21D;53743;51.100;5.874;2023-03-23T05:21:12;13.61;84.93
66835;HTU21D;53743;51.100;5.874;2023-03-23T05:22:18;13.64;84.69
66835;HTU21D;53743;51.100;5.874;2023-03-23T05:23:22;13.60;84.66
66835;HTU21D;53743;51.100;5.874;2023-03-23T05:24:31;13.63;84.31
66835;HTU21D;53743;51.100;5.874;2023-03-23T05:25:36;13.62;84.45
66835;HTU21D;53743;51.100;5.874;2023-03-23T05:26:49;13.65;84.09
66835;HTU21D;53743;51.100;5.874;2023-03-23T05:27:55;13.69;83.74
66835;HTU21D;53743;51.100;5.874;2023-03-23T05:29:18;13.68;84.04
66835;HTU21D;53743;51.100;5.874;2023-03-23T05:30:28;13.64;83.73
66835;HTU21D;53743;51.100;5.874;2023-03-23T05:31:30;13.61;84.03
66835;HTU21D;53743;51.100;5.874;2023-03-23T05:32:32;13.61;84.07
66835;HTU21D;53743;51.100;5.874;2023-03-23T05:33:45;13.63;83.46
66835;HTU21D;53743;51.100;5.874;2023-03-23T05:34:59;13.65;82.94
66835;HTU21D;53743;51.100;5.874;2023-03-23T05:36:00;13.67;83.23
66835;HTU21D;53743;51.100;5.874;2023-03-23T05:37:09;13.69;82.98
66835;HTU21D;53743;51.100;5.874;2023-03-23T05:38:35;13.69;82.94
66835;HTU21D;53743;51.100;5.874;2023-03-23T05:39:39;13.69;82.88
66835;HTU21D;53743;51.100;5.874;2023-03-23T05:41:11;13.68;82.58
66835;HTU21D;53743;51.100;5.874;2023-03-23T05:42:15;13.71;82.11
66835;HTU21D;53743;51.100;5.874;2023-03-23T05:43:23;13.75;82.06
66835;HTU21D;53743;51.100;5.874;2023-03-23T05:44:46;13.70;82.39
66835;HTU21D;53743;51.100;5.874;2023-03-23T05:45:48;13.74;82.20
66835;HTU21D;53743;51.100;5.874;2023-03-23T05:46:50;13.67;82.07
66835;HTU21D;53743;51.100;5.874;2023-03-23T05:47:52;13.70;82.71
66835;HTU21D;53743;51.100;5.874;2023-03-23T05:48:55;13.70;81.26
66835;HTU21D;53743;51.100;5.874;2023-03-23T05:50:04;13.76;81.43
66835;HTU21D;53743;51.100;5.874;2023-03-23T05:51:07;13.75;81.82
66835;HTU21D;53743;51.100;5.874;2023-03-23T05:52:13;13.74;81.92
66835;HTU21D;53743;51.100;5.874;2023-03-23T05:53:15;13.69;81.02
66835;HTU21D;53743;51.100;5.874;2023-03-23T05:54:17;13.70;81.49
66835;HTU21D;53743;51.100;5.874;2023-03-23T05:55:22;13.70;81.33
66835;HTU21D;53743;51.100;5.874;2023-03-23T05:56:35;13.70;81.39
66835;HTU21D;53743;51.100;5.874;2023-03-23T05:57:36;13.75;81.35
66835;HTU21D;53743;51.100;5.874;2023-03-23T05:58:48;13.75;81.52
66835;HTU21D;53743;51.100;5.874;2023-03-23T05:59:49;13.74;81.27
66835;HTU21D;53743;51.100;5.874;2023-03-23T06:00:55;13.76;81.13
66835;HTU21D;53743;51.100;5.874;2023-03-23T06:02:02;13.78;81.02
66835;HTU21D;53743;51.100;5.874;2023-03-23T06:03:04;13.73;81.38
66835;HTU21D;53743;51.100;5.874;2023-03-23T06:04:14;13.75;81.39
66835;HTU21D;53743;51.100;5.874;2023-03-23T06:05:24;13.81;81.01
66835;HTU21D;53743;51.100;5.874;2023-03-23T06:06:29;13.81;80.78
66835;HTU21D;53743;51.100;5.874;2023-03-23T06:07:39;13.82;80.98
66835;HTU21D;53743;51.100;5.874;2023-03-23T06:08:41;13.86;80.90
66835;HTU21D;53743;51.100;5.874;2023-03-23T06:09:42;13.82;80.77
66835;HTU21D;53743;51.100;5.874;2023-03-23T06:10:59;13.85;80.26
66835;HTU21D;53743;51.100;5.874;2023-03-23T06:12:04;13.89;80.62
66835;HTU21D;53743;51.100;5.874;2023-03-23T06:13:12;13.84;80.93
66835;HTU21D;53743;51.100;5.874;2023-03-23T06:14:23;13.82;81.25
66835;HTU21D;53743;51.100;5.874;2023-03-23T06:15:24;13.80;81.34
66835;HTU21D;53743;51.100;5.874;2023-03-23T06:16:41;13.85;80.91
66835;HTU21D;53743;51.100;5.874;2023-03-23T06:17:45;13.92;80.99
66835;HTU21D;53743;51.100;5.874;2023-03-23T06:18:48;13.89;80.69
66835;HTU21D;53743;51.100;5.874;2023-03-23T06:20:09;13.88;81.07
66835;HTU21D;53743;51.100;5.874;2023-03-23T06:21:13;13.86;80.98
66835;HTU21D;53743;51.100;5.874;2023-03-23T06:22:27;13.86;81.39
66835;HTU21D;53743;51.100;5.874;2023-03-23T06:23:50;13.88;81.38
66835;HTU21D;53743;51.100;5.874;2023-03-23T06:24:53;13.93;81.56
66835;HTU21D;53743;51.100;5.874;2023-03-23T06:26:03;14.00;81.16
66835;HTU21D;53743;51.100;5.874;2023-03-23T06:27:08;14.00;80.94
66835;HTU21D;53743;51.100;5.874;2023-03-23T06:28:10;14.04;81.07
66835;HTU21D;53743;51.100;5.874;2023-03-23T06:29:16;14.04;81.07
66835;HTU21D;53743;51.100;5.874;2023-03-23T06:30:22;14.08;81.08
66835;HTU21D;53743;51.100;5.874;2023-03-23T06:31:25;14.09;81.02
66835;HTU21D;53743;51.100;5.874;2023-03-23T06:32:30;14.10;80.91
66835;HTU21D;53743;51.100;5.874;2023-03-23T06:33:32;14.13;81.17
66835;HTU21D;53743;51.100;5.874;2023-03-23T06:34:54;14.13;80.71
66835;HTU21D;53743;51.100;5.874;2023-03-23T06:36:26;14.17;81.04
66835;HTU21D;53743;51.100;5.874;2023-03-23T06:37:49;14.19;81.06
66835;HTU21D;53743;51.100;5.874;2023-03-23T06:38:57;14.18;80.62
66835;HTU21D;53743;51.100;5.874;2023-03-23T06:40:09;14.18;80.93
66835;HTU21D;53743;51.100;5.874;2023-03-23T06:41:13;14.14;81.04
66835;HTU21D;53743;51.100;5.874;2023-03-23T06:42:15;14.20;81.00
66835;HTU21D;53743;51.100;5.874;2023-03-23T06:43:23;14.19;80.69
66835;HTU21D;53743;51.100;5.874;2023-03-23T06:44:48;14.10;81.13
66835;HTU21D;53743;51.100;5.874;2023-03-23T06:45:49;14.08;80.65
66835;HTU21D;53743;51.100;5.874;2023-03-23T06:47:20;14.09;80.88
66835;HTU21D;53743;51.100;5.874;2023-03-23T06:48:22;14.10;80.91
66835;HTU21D;53743;51.100;5.874;2023-03-23T06:49:24;14.13;80.91
66835;HTU21D;53743;51.100;5.874;2023-03-23T06:50:37;14.15;81.22
66835;HTU21D;53743;51.100;5.874;2023-03-23T06:51:40;14.17;81.01
66835;HTU21D;53743;51.100;5.874;2023-03-23T06:52:45;14.17;80.46
66835;HTU21D;53743;51.100;5.874;2023-03-23T06:53:47;14.14;80.68
66835;HTU21D;53743;51.100;5.874;2023-03-23T06:54:48;14.14;80.42
66835;HTU21D;53743;51.100;5.874;2023-03-23T06:55:52;14.10;80.72
66835;HTU21D;53743;51.100;5.874;2023-03-23T06:56:53;14.11;80.88
66835;HTU21D;53743;51.100;5.874;2023-03-23T06:57:57;14.10;81.30
66835;HTU21D;53743;51.100;5.874;2023-03-23T06:59:00;14.17;81.10
66835;HTU21D;53743;51.100;5.874;2023-03-23T07:00:02;14.14;80.75
66835;HTU21D;53743;51.100;5.874;2023-03-23T07:01:06;14.17;80.79
66835;HTU21D;53743;51.100;5.874;2023-03-23T07:02:14;14.20;79.81